Nordic Philip — 5BZH2 — position and weather

sailwx.info

Track history (hours):
 
Tides and Currents Weather Stations Pressure Air Temp Water Temp Dewpoint Dewpoint Depression Visibility Wind Speed Wind Dir Waves Ship Positions

Nordic Philip

Last reported at 2015-Jan-27 00:30 UTC. Time now 2015-Jan-27 16:56 UTC.
Position N 59°36' E 023°15'.

Length 151 m; draft 7.8 m.

Type: Ship (hazmat cat A). MMSI: 212018000.

Date/timePositionNaut miles runAvg speedWind from/ knotsBaromVisibWave heightAir tempDewpointWater temp
2015-Jan-27 00:30N 59°36' E 023°15'1313.6
2015-Jan-26 23:33N 59°40' E 023°39'1413.9
2015-Jan-26 22:33N 59°44' E 024°06'4414.2
2015-Jan-26 19:29N 59°54' E 025°30'1914.3
2015-Jan-26 18:07N 59°58' E 026°08'814.3
2015-Jan-26 17:33N 60°00' E 026°24'1414.0
2015-Jan-26 16:34N 60°00' E 026°52'1413.6
2015-Jan-26 15:33N 60°04' E 027°18'8712.3
2015-Jan-26 08:31N 59°53' E 030°10'2 1.5
2015-Jan-26 07:30N 59°52' E 030°12'0 0.0
2015-Jan-26 06:25N 59°52' E 030°12'0 0.0
2015-Jan-25 15:33N 59°52' E 030°12'0 0.0
2015-Jan-25 14:22N 59°52' E 030°12'0 0.0
2015-Jan-25 13:12N 59°52' E 030°12'0 0.0
2015-Jan-25 11:23N 59°52' E 030°12'0 0.0
2015-Jan-25 10:25N 59°52' E 030°12'0 0.0
2015-Jan-25 00:28N 59°52' E 030°12'1 1.5
2015-Jan-24 23:33N 59°54' E 030°13'0 0.0
2015-Jan-24 20:25N 59°54' E 030°14'0 0.0
2015-Jan-24 16:22N 59°54' E 030°14'0 0.0
2015-Jan-24 15:27N 59°54' E 030°14'5 5.4
2015-Jan-24 14:30N 59°55' E 030°03'10010.7
2015-Jan-24 05:11N 59°59' E 026°45'1417.5
2015-Jan-24 04:25N 59°57' E 026°18'4017.4
2015-Jan-24 02:07N 59°47' E 025°00'1017.3
2015-Jan-24 01:33N 59°45' E 024°42'3717.3
2015-Jan-23 23:24N 59°34' E 023°31'35617.1
2015-Jan-23 02:33N 55°36' E 015°18'1817.7
2015-Jan-23 01:33N 55°28' E 014°51'1717.2
2015-Jan-23 00:34N 55°17' E 014°28'1817.7
2015-Jan-22 23:33N 55°03' E 014°08'1717.4
2015-Jan-22 22:33N 54°56' E 013°40'1817.5
2015-Jan-22 21:34N 54°50' E 013°12'1717.3
2015-Jan-22 20:34N 54°44' E 012°44'1616.4
2015-Jan-22 19:34N 54°35' E 012°20'1514.7
2015-Jan-22 18:34N 54°24' E 012°02'1616.2
2015-Jan-22 17:34N 54°28' E 011°35'1616.3
2015-Jan-22 16:34N 54°34' E 011°09'1515.2
2015-Jan-22 15:33N 54°34' E 010°43'1515.0
2015-Jan-22 14:33N 54°29' E 010°19'9 9.5
2015-Jan-22 13:33N 54°22' E 010°09'1 1.2
2015-Jan-22 12:33N 54°22' E 010°07'6 5.8
2015-Jan-22 11:33N 54°20' E 009°57'8 7.5
2015-Jan-22 10:33N 54°20' E 009°44'6 6.2
2015-Jan-22 09:34N 54°16' E 009°37'6 6.5
2015-Jan-22 08:34N 54°11' E 009°29'6 5.8
2015-Jan-22 07:34N 54°08' E 009°21'8 8.1
2015-Jan-22 06:33N 54°01' E 009°18'8 8.0
2015-Jan-22 05:33N 53°54' E 009°10'1 1.1
2015-Jan-22 04:33N 53°53' E 009°09'1 1.5
2015-Jan-22 03:33N 53°53' E 009°12'0 0.2
2015-Jan-22 02:32N 53°53' E 009°12'0 0.0
2015-Jan-22 01:32N 53°53' E 009°12'0 0.0
2015-Jan-22 00:32N 53°53' E 009°12'2 2.1
2015-Jan-21 23:33N 53°52' E 009°15'1013.3
2015-Jan-21 22:50N 53°45' E 009°25'115.2
2015-Jan-21 22:46N 53°44' E 009°26'315.3
2015-Jan-21 22:33N 53°42' E 009°30'1312.9
2015-Jan-21 21:33N 53°34' E 009°47'5 5.0
2015-Jan-21 20:33N 53°32' E 009°55'0 0.0
2015-Jan-21 19:33N 53°32' E 009°55'0 0.0
2015-Jan-21 18:33N 53°32' E 009°55'0 0.0
2015-Jan-21 17:33N 53°32' E 009°55'0 0.0
2015-Jan-21 16:30N 53°32' E 009°55'0 0.4
2015-Jan-21 15:33N 53°32' E 009°55'0 0.1
2015-Jan-21 14:31N 53°32' E 009°55'0 0.0
2015-Jan-21 13:31N 53°32' E 009°55'0 0.0
2015-Jan-21 12:31N 53°32' E 009°55'0 0.0
2015-Jan-21 11:31N 53°32' E 009°55'0 0.0
2015-Jan-21 10:31N 53°32' E 009°55'0 0.0
2015-Jan-21 09:28N 53°32' E 009°55'0 0.0
2015-Jan-21 08:28N 53°32' E 009°55'0 0.0
2015-Jan-21 07:28N 53°32' E 009°55'0 0.0
2015-Jan-21 06:28N 53°32' E 009°55'1 1.1
2015-Jan-21 05:33N 53°33' E 009°55'2 2.0
2015-Jan-21 04:30N 53°31' E 009°56'0 0.0
2015-Jan-21 03:33N 53°31' E 009°56'0 0.0
2015-Jan-21 02:33N 53°31' E 009°56'0 0.0
2015-Jan-21 01:33N 53°31' E 009°56'0 0.0
2015-Jan-21 00:33N 53°31' E 009°56'0 0.0
2015-Jan-20 23:33N 53°31' E 009°56'0 0.0
2015-Jan-20 22:30N 53°31' E 009°56'0 0.0
2015-Jan-20 21:33N 53°31' E 009°56'0 0.0
2015-Jan-20 20:30N 53°31' E 009°56'0 0.0
2015-Jan-20 19:33N 53°31' E 009°56'2 1.9
2015-Jan-20 18:33N 53°33' E 009°56'1 0.6
2015-Jan-20 17:30N 53°32' E 009°57'0 0.0
2015-Jan-20 16:29N 53°32' E 009°57'0 0.0
2015-Jan-20 15:29N 53°32' E 009°57'0 0.0
2015-Jan-20 14:23N 53°32' E 009°57'0 0.0
2015-Jan-20 13:29N 53°32' E 009°57'0 0.0
2015-Jan-20 12:29N 53°32' E 009°57'0 0.0
2015-Jan-20 11:29N 53°32' E 009°57'0 0.0
2015-Jan-20 10:33N 53°32' E 009°57'2 1.8
2015-Jan-20 09:33N 53°32' E 009°54'1110.5
2015-Jan-20 08:34N 53°35' E 009°37'1312.9
2015-Jan-20 07:34N 53°45' E 009°24'1211.6
2015-Jan-20 06:33N 53°53' E 009°09'1211.8
2015-Jan-20 05:33N 53°50' E 008°49'1111.3
2015-Jan-20 04:33N 53°58' E 008°35'1414.3
2015-Jan-20 03:33N 53°59' E 008°11'1312.6
2015-Jan-20 02:32N 53°53' E 007°51'1414.7
2015-Jan-20 01:33N 53°45' E 008°12'1615.9
2015-Jan-20 00:33N 53°35' E 008°32'0 0.1
2015-Jan-19 23:33N 53°35' E 008°32'0 0.0
2015-Jan-19 22:33N 53°35' E 008°32'0 0.0
2015-Jan-19 21:33N 53°35' E 008°32'0 0.4
2015-Jan-19 20:32N 53°35' E 008°31'0 0.0
2015-Jan-19 19:32N 53°35' E 008°31'0 0.0
2015-Jan-19 18:32N 53°35' E 008°31'0 0.0
2015-Jan-19 17:32N 53°35' E 008°31'0 0.0
2015-Jan-19 16:32N 53°35' E 008°31'0 0.0
2015-Jan-19 15:32N 53°35' E 008°31'0 0.0
2015-Jan-19 14:32N 53°35' E 008°31'0 0.0
2015-Jan-19 13:29N 53°35' E 008°31'0 0.0
2015-Jan-19 12:29N 53°35' E 008°31'0 0.0
2015-Jan-19 11:32N 53°35' E 008°31'0 0.3
2015-Jan-19 10:33N 53°35' E 008°32'1313.4
2015-Jan-19 09:33N 53°44' E 008°15'1615.4
2015-Jan-19 08:33N 53°53' E 007°53'1211.8
2015-Jan-19 07:33N 54°00' E 008°08'1312.6
2015-Jan-19 06:34N 53°59' E 008°29'1413.9
2015-Jan-19 05:34N 53°50' E 008°48'1312.5
2015-Jan-19 04:33N 53°54' E 009°09'1 0.7
2015-Jan-19 03:33N 53°54' E 009°10'0 0.3
2015-Jan-19 02:33N 53°54' E 009°10'3 3.2
2015-Jan-19 01:33N 53°57' E 009°14'6 6.2
2015-Jan-19 00:33N 54°02' E 009°18'1 1.2
2015-Jan-18 23:33N 54°03' E 009°19'6 6.0
2015-Jan-18 22:33N 54°09' E 009°22'7 7.0
2015-Jan-18 21:34N 54°12' E 009°33'4 3.8
2015-Jan-18 20:29N 54°15' E 009°37'7 7.7
2015-Jan-18 19:34N 54°21' E 009°45'7 7.1
2015-Jan-18 18:33N 54°21' E 009°57'6 6.4
2015-Jan-18 17:34N 54°22' E 010°08'1 0.6
2015-Jan-18 16:33N 54°22' E 010°09'3 3.4
2015-Jan-18 15:33N 54°25' E 010°12'9 8.8
2015-Jan-18 14:33N 54°31' E 010°22'5 5.4
2015-Jan-18 13:34N 54°33' E 010°31'1110.7
2015-Jan-18 12:32N 54°35' E 010°50'1515.2
2015-Jan-18 11:33N 54°35' E 011°15'1615.6
2015-Jan-18 10:33N 54°28' E 011°39'1515.3
2015-Jan-18 09:33N 54°26' E 012°06'1414.0
2015-Jan-18 08:33N 54°38' E 012°20'1514.9
2015-Jan-18 07:33N 54°47' E 012°41'1514.8
2015-Jan-18 06:33N 54°47' E 013°06'1515.5
2015-Jan-18 05:33N 54°46' E 013°33'1615.6
2015-Jan-18 04:33N 54°42' E 013°59'1615.7
2015-Jan-18 03:34N 54°38' E 014°25'1515.2
2015-Jan-18 02:33N 54°43' E 014°50'1514.6
2015-Jan-18 01:33N 54°47' E 015°14'1514.4
2015-Jan-18 00:33N 54°52' E 015°38'  
Track history (hours):
 
Tides and Currents Weather Stations Pressure Air Temp Water Temp Dewpoint Dewpoint Depression Visibility Wind Speed Wind Dir Waves Ship Positions

Nordic Philip

Last reported at 2015-Jan-27 00:30 UTC. Time now 2015-Jan-27 16:56 UTC.
Position N 59°36' E 023°15'.

Length 151 m; draft 7.8 m.

Type: Ship (hazmat cat A). MMSI: 212018000.

Date/timePositionNaut miles runAvg speedWind from/ knotsBaromVisibWave heightAir tempDewpointWater temp
2015-Jan-27 00:30N 59°36' E 023°15'1313.6
2015-Jan-26 23:33N 59°40' E 023°39'1413.9
2015-Jan-26 22:33N 59°44' E 024°06'4414.2
2015-Jan-26 19:29N 59°54' E 025°30'1914.3
2015-Jan-26 18:07N 59°58' E 026°08'814.3
2015-Jan-26 17:33N 60°00' E 026°24'1414.0
2015-Jan-26 16:34N 60°00' E 026°52'1413.6
2015-Jan-26 15:33N 60°04' E 027°18'8712.3
2015-Jan-26 08:31N 59°53' E 030°10'2 1.5
2015-Jan-26 07:30N 59°52' E 030°12'0 0.0
2015-Jan-26 06:25N 59°52' E 030°12'0 0.0
2015-Jan-25 15:33N 59°52' E 030°12'0 0.0
2015-Jan-25 14:22N 59°52' E 030°12'0 0.0
2015-Jan-25 13:12N 59°52' E 030°12'0 0.0
2015-Jan-25 11:23N 59°52' E 030°12'0 0.0
2015-Jan-25 10:25N 59°52' E 030°12'0 0.0
2015-Jan-25 00:28N 59°52' E 030°12'1 1.5
2015-Jan-24 23:33N 59°54' E 030°13'0 0.0
2015-Jan-24 20:25N 59°54' E 030°14'0 0.0
2015-Jan-24 16:22N 59°54' E 030°14'0 0.0
2015-Jan-24 15:27N 59°54' E 030°14'5 5.4
2015-Jan-24 14:30N 59°55' E 030°03'10010.7
2015-Jan-24 05:11N 59°59' E 026°45'1417.5
2015-Jan-24 04:25N 59°57' E 026°18'4017.4
2015-Jan-24 02:07N 59°47' E 025°00'1017.3
2015-Jan-24 01:33N 59°45' E 024°42'3717.3
2015-Jan-23 23:24N 59°34' E 023°31'35617.1
2015-Jan-23 02:33N 55°36' E 015°18'1817.7
2015-Jan-23 01:33N 55°28' E 014°51'1717.2
2015-Jan-23 00:34N 55°17' E 014°28'1817.7
2015-Jan-22 23:33N 55°03' E 014°08'1717.4
2015-Jan-22 22:33N 54°56' E 013°40'1817.5
2015-Jan-22 21:34N 54°50' E 013°12'1717.3
2015-Jan-22 20:34N 54°44' E 012°44'1616.4
2015-Jan-22 19:34N 54°35' E 012°20'1514.7
2015-Jan-22 18:34N 54°24' E 012°02'1616.2
2015-Jan-22 17:34N 54°28' E 011°35'1616.3
2015-Jan-22 16:34N 54°34' E 011°09'1515.2
2015-Jan-22 15:33N 54°34' E 010°43'1515.0
2015-Jan-22 14:33N 54°29' E 010°19'9 9.5
2015-Jan-22 13:33N 54°22' E 010°09'1 1.2
2015-Jan-22 12:33N 54°22' E 010°07'6 5.8
2015-Jan-22 11:33N 54°20' E 009°57'8 7.5
2015-Jan-22 10:33N 54°20' E 009°44'6 6.2
2015-Jan-22 09:34N 54°16' E 009°37'6 6.5
2015-Jan-22 08:34N 54°11' E 009°29'6 5.8
2015-Jan-22 07:34N 54°08' E 009°21'8 8.1
2015-Jan-22 06:33N 54°01' E 009°18'8 8.0
2015-Jan-22 05:33N 53°54' E 009°10'1 1.1
2015-Jan-22 04:33N 53°53' E 009°09'1 1.5
2015-Jan-22 03:33N 53°53' E 009°12'0 0.2
2015-Jan-22 02:32N 53°53' E 009°12'0 0.0
2015-Jan-22 01:32N 53°53' E 009°12'0 0.0
2015-Jan-22 00:32N 53°53' E 009°12'2 2.1
2015-Jan-21 23:33N 53°52' E 009°15'1013.3
2015-Jan-21 22:50N 53°45' E 009°25'115.2
2015-Jan-21 22:46N 53°44' E 009°26'315.3
2015-Jan-21 22:33N 53°42' E 009°30'1312.9
2015-Jan-21 21:33N 53°34' E 009°47'5 5.0
2015-Jan-21 20:33N 53°32' E 009°55'0 0.0
2015-Jan-21 19:33N 53°32' E 009°55'0 0.0
2015-Jan-21 18:33N 53°32' E 009°55'0 0.0
2015-Jan-21 17:33N 53°32' E 009°55'0 0.0
2015-Jan-21 16:30N 53°32' E 009°55'0 0.4
2015-Jan-21 15:33N 53°32' E 009°55'0 0.1
2015-Jan-21 14:31N 53°32' E 009°55'0 0.0
2015-Jan-21 13:31N 53°32' E 009°55'0 0.0
2015-Jan-21 12:31N 53°32' E 009°55'0 0.0
2015-Jan-21 11:31N 53°32' E 009°55'0 0.0
2015-Jan-21 10:31N 53°32' E 009°55'0 0.0
2015-Jan-21 09:28N 53°32' E 009°55'0 0.0
2015-Jan-21 08:28N 53°32' E 009°55'0 0.0
2015-Jan-21 07:28N 53°32' E 009°55'0 0.0
2015-Jan-21 06:28N 53°32' E 009°55'1 1.1
2015-Jan-21 05:33N 53°33' E 009°55'2 2.0
2015-Jan-21 04:30N 53°31' E 009°56'0 0.0
2015-Jan-21 03:33N 53°31' E 009°56'0 0.0
2015-Jan-21 02:33N 53°31' E 009°56'0 0.0
2015-Jan-21 01:33N 53°31' E 009°56'0 0.0
2015-Jan-21 00:33N 53°31' E 009°56'0 0.0
2015-Jan-20 23:33N 53°31' E 009°56'0 0.0
2015-Jan-20 22:30N 53°31' E 009°56'0 0.0
2015-Jan-20 21:33N 53°31' E 009°56'0 0.0
2015-Jan-20 20:30N 53°31' E 009°56'0 0.0
2015-Jan-20 19:33N 53°31' E 009°56'2 1.9
2015-Jan-20 18:33N 53°33' E 009°56'1 0.6
2015-Jan-20 17:30N 53°32' E 009°57'0 0.0
2015-Jan-20 16:29N 53°32' E 009°57'0 0.0
2015-Jan-20 15:29N 53°32' E 009°57'0 0.0
2015-Jan-20 14:23N 53°32' E 009°57'0 0.0
2015-Jan-20 13:29N 53°32' E 009°57'0 0.0
2015-Jan-20 12:29N 53°32' E 009°57'0 0.0
2015-Jan-20 11:29N 53°32' E 009°57'0 0.0
2015-Jan-20 10:33N 53°32' E 009°57'2 1.8
2015-Jan-20 09:33N 53°32' E 009°54'1110.5
2015-Jan-20 08:34N 53°35' E 009°37'1312.9
2015-Jan-20 07:34N 53°45' E 009°24'1211.6
2015-Jan-20 06:33N 53°53' E 009°09'1211.8
2015-Jan-20 05:33N 53°50' E 008°49'1111.3
2015-Jan-20 04:33N 53°58' E 008°35'1414.3
2015-Jan-20 03:33N 53°59' E 008°11'1312.6
2015-Jan-20 02:32N 53°53' E 007°51'1414.7
2015-Jan-20 01:33N 53°45' E 008°12'1615.9
2015-Jan-20 00:33N 53°35' E 008°32'0 0.1
2015-Jan-19 23:33N 53°35' E 008°32'0 0.0
2015-Jan-19 22:33N 53°35' E 008°32'0 0.0
2015-Jan-19 21:33N 53°35' E 008°32'0 0.4
2015-Jan-19 20:32N 53°35' E 008°31'0 0.0
2015-Jan-19 19:32N 53°35' E 008°31'0 0.0
2015-Jan-19 18:32N 53°35' E 008°31'0 0.0
2015-Jan-19 17:32N 53°35' E 008°31'0 0.0
2015-Jan-19 16:32N 53°35' E 008°31'0 0.0
2015-Jan-19 15:32N 53°35' E 008°31'0 0.0
2015-Jan-19 14:32N 53°35' E 008°31'0 0.0
2015-Jan-19 13:29N 53°35' E 008°31'0 0.0
2015-Jan-19 12:29N 53°35' E 008°31'0 0.0
2015-Jan-19 11:32N 53°35' E 008°31'0 0.3
2015-Jan-19 10:33N 53°35' E 008°32'1313.4
2015-Jan-19 09:33N 53°44' E 008°15'1615.4
2015-Jan-19 08:33N 53°53' E 007°53'1211.8
2015-Jan-19 07:33N 54°00' E 008°08'1312.6
2015-Jan-19 06:34N 53°59' E 008°29'1413.9
2015-Jan-19 05:34N 53°50' E 008°48'1312.5
2015-Jan-19 04:33N 53°54' E 009°09'1 0.7
2015-Jan-19 03:33N 53°54' E 009°10'0 0.3
2015-Jan-19 02:33N 53°54' E 009°10'3 3.2
2015-Jan-19 01:33N 53°57' E 009°14'6 6.2
2015-Jan-19 00:33N 54°02' E 009°18'1 1.2
2015-Jan-18 23:33N 54°03' E 009°19'6 6.0
2015-Jan-18 22:33N 54°09' E 009°22'7 7.0
2015-Jan-18 21:34N 54°12' E 009°33'4 3.8
2015-Jan-18 20:29N 54°15' E 009°37'7 7.7
2015-Jan-18 19:34N 54°21' E 009°45'7 7.1
2015-Jan-18 18:33N 54°21' E 009°57'6 6.4
2015-Jan-18 17:34N 54°22' E 010°08'1 0.6
2015-Jan-18 16:33N 54°22' E 010°09'3 3.4
2015-Jan-18 15:33N 54°25' E 010°12'9 8.8
2015-Jan-18 14:33N 54°31' E 010°22'5 5.4
2015-Jan-18 13:34N 54°33' E 010°31'1110.7
2015-Jan-18 12:32N 54°35' E 010°50'1515.2
2015-Jan-18 11:33N 54°35' E 011°15'1615.6
2015-Jan-18 10:33N 54°28' E 011°39'1515.3
2015-Jan-18 09:33N 54°26' E 012°06'1414.0
2015-Jan-18 08:33N 54°38' E 012°20'1514.9
2015-Jan-18 07:33N 54°47' E 012°41'1514.8
2015-Jan-18 06:33N 54°47' E 013°06'1515.5
2015-Jan-18 05:33N 54°46' E 013°33'1615.6
2015-Jan-18 04:33N 54°42' E 013°59'1615.7
2015-Jan-18 03:34N 54°38' E 014°25'1515.2
2015-Jan-18 02:33N 54°43' E 014°50'1514.6
2015-Jan-18 01:33N 54°47' E 015°14'1514.4
2015-Jan-18 00:33N 54°52' E 015°38'  

Dump ship's entire track history